Time;durP1;ratioP1;P1;durP2;ratioP2;P2;SDS_P1;SDS_P2;PMS_P1;PMS_P2;Temp;Humidity;BMP_temperature;BMP_pressure;BME280_temperature;BME280_humidity;BME280_pressure;Samples;Min_cycle;Max_cycle;Signal;HPM_P1;HPM_P2
2022/06/26 02:37:11;;;;;;;;;;;;;;;;;;5221287;23;19942;-91
2022/06/26 02:39:39;;;;;;;;;;;;;;;;;;4812541;29;19932;-90
2022/06/26 02:42:06;;;;;;;;;;;;;;;;;;4831276;29;19981;-90
2022/06/26 02:44:32;;;;;;;;;;;;;;;;;;4842076;29;20341;-90
2022/06/26 02:47:00;;;;;;;;;;;;;;;;;;4826157;29;19932;-89
2022/06/26 02:49:27;;;;;;;;;;;;;;;;;;4843048;29;19940;-88
2022/06/26 02:51:53;;;;;;;;;;;;;;;;;;4812426;29;20649;-89
2022/06/26 02:54:19;;;;;;;;;;;;;;;;;;4828768;29;20015;-89
2022/06/26 02:56:50;;;;;;;;;;;;;;;;;;4812759;29;19928;-89
2022/06/26 02:59:18;;;;;;;;;;;;;;;;;;4817010;29;19928;-89
2022/06/26 03:01:44;;;;;;;;;;;;;;;;;;4815116;29;20027;-89
2022/06/26 03:04:12;;;;;;;;;;;;;;;;;;4830459;29;20044;-89
2022/06/26 03:06:39;;;;;;;;;;;;;;;;;;4830716;29;19939;-89
2022/06/26 03:09:07;;;;;;;;;;;;;;;;;;4826599;29;19924;-89
2022/06/26 03:11:34;;;;;;;;;;;;;;;;;;4825194;29;19934;-90
2022/06/26 03:14:02;;;;;;;;;;;;;;;;;;4826200;29;20363;-89
2022/06/26 03:16:28;;;;;;;;;;;;;;;;;;4818455;29;19936;-89
2022/06/26 03:19:00;;;;;;;;;;;;;;;;;;4813001;29;20014;-89
2022/06/26 03:21:27;;;;;;;;;;;;;;;;;;4830393;29;19928;-89
2022/06/26 03:24:04;;;;;;;;;;;;;;;;;;4824700;29;19994;-88
2022/06/26 03:26:31;;;;;;;;;;;;;;;;;;4831160;29;19932;-88
2022/06/26 03:29:00;;;;;;;;;;;;;;;;;;4831710;29;19932;-88
2022/06/26 03:31:33;;;;;;;;;;;;;;;;;;4830371;29;19939;-89
2022/06/26 03:34:00;;;;;;;;;;;;;;;;;;4821948;29;19939;-88
2022/06/26 03:36:28;;;;;;;;;;;;;;;;;;4846701;29;19928;-88
2022/06/26 03:38:55;;;;;;;;;;;;;;;;;;4825307;29;19966;-88
2022/06/26 03:41:21;;;;;;;;;;;;;;;;;;4819593;29;19963;-88
2022/06/26 03:43:47;;;;;;;;;;;;;;;;;;4825199;29;20499;-89
2022/06/26 03:46:14;;;;;;;;;;;;;;;;;;4819964;29;19967;-87
2022/06/26 03:48:41;;;;;;;;;;;;;;;;;;4811973;29;19932;-89
2022/06/26 03:51:08;;;;;;;;;;;;;;;;;;4816228;29;20036;-88
2022/06/26 03:53:35;;;;;;;;;;;;;;;;;;4828305;29;19928;-88
2022/06/26 03:56:11;;;;;;;;;;;;;;;;;;4829709;29;20016;-88
2022/06/26 03:58:39;;;;;;;;;;;;;;;;;;4816834;29;20360;-88
2022/06/26 04:01:06;;;;;;;;;;;;;;;;;;4833938;29;19924;-88
2022/06/26 04:03:33;;;;;;;;;;;;;;;;;;4832174;29;19932;-88
2022/06/26 04:06:00;;;;;;;;;;;;;;;;;;4833944;29;19939;-88
2022/06/26 04:08:27;;;;;;;;;;;;;;;;;;4831321;29;20490;-88
2022/06/26 04:10:54;;;;;;;;;;;;;;;;;;4835697;29;19933;-88
2022/06/26 04:13:21;;;;;;;;;;;;;;;;;;4853063;29;20296;-88
2022/06/26 04:16:02;;;;;;;;;;;;;;;;;;4838815;29;20644;-87
2022/06/26 04:18:28;;;;;;;;;;;;;;;;;;4832362;29;19951;-88
2022/06/26 04:20:57;;;;;;;;;;;;;;;;;;4829478;29;19939;-88
2022/06/26 04:23:25;;;;;;;;;;;;;;;;;;4826719;29;20132;-88
2022/06/26 04:25:51;;;;;;;;;;;;;;;;;;4829048;29;21627;-88
2022/06/26 04:28:18;;;;;;;;;;;;;;;;;;4826869;29;19969;-88
2022/06/26 04:30:45;;;;;;;;;;;;;;;;;;4828260;29;19935;-88
2022/06/26 04:33:12;;;;;;;;;;;;;;;;;;4825388;29;20022;-88
2022/06/26 04:35:38;;;;;;;;;;;;;;;;;;4828738;29;20023;-88
2022/06/26 04:38:05;;;;;;;;;;;;;;;;;;4810842;29;19932;-88
2022/06/26 04:40:31;;;;;;;;;;;;;;;;;;4834381;29;20020;-88
2022/06/26 04:43:17;;;;;;;;;;;;;;;;;;4834171;29;20742;-88
2022/06/26 04:45:43;;;;;;;;;;;;;;;;;;4827602;29;20583;-88
2022/06/26 04:48:10;;;;;;;;;;;;;;;;;;4815948;29;19929;-88
2022/06/26 04:50:38;;;;;;;;;;;;;;;;;;4832316;29;20398;-88
2022/06/26 04:53:08;;;;;;;;;;;;;;;;;;4836953;29;20003;-87
2022/06/26 04:55:35;;;;;;;;;;;;;;;;;;4833903;29;19935;-88
2022/06/26 04:58:05;;;;;;;;;;;;;;;;;;4834177;29;19928;-88
2022/06/26 05:00:32;;;;;;;;;;;;;;;;;;4846652;29;19928;-88
2022/06/26 05:03:02;;;;;;;;;;;;;;;;;;4829281;29;19942;-88
2022/06/26 05:05:29;;;;;;;;;;;;;;;;;;4816223;29;20017;-88
2022/06/26 05:07:56;;;;;;;;;;;;;;;;;;4814210;29;20023;-87
2022/06/26 05:10:30;;;;;;;;;;;;;;;;;;4835288;29;19934;-87
2022/06/26 05:13:03;;;;;;;;;;;;;;;;;;4822367;29;19932;-87
2022/06/26 05:15:30;;;;;;;;;;;;;;;;;;4841155;29;20265;-88
2022/06/26 05:17:57;;;;;;;;;;;;;;;;;;4814999;29;19978;-88
2022/06/26 05:20:23;;;;;;;;;;;;;;;;;;4833975;29;19930;-88
2022/06/26 05:22:49;;;;;;;;;;;;;;;;;;4830525;29;19936;-88
2022/06/26 05:25:16;;;;;;;;;;;;;;;;;;4849430;29;19927;-87
2022/06/26 05:27:43;;;;;;;;;;;;;;;;;;4840378;29;19925;-87
2022/06/26 05:30:11;;;;;;;;;;;;;;;;;;4840939;29;19963;-87
2022/06/26 05:32:38;;;;;;;;;;;;;;;;;;4826908;29;19935;-88
2022/06/26 05:35:04;;;;;;;;;;;;;;;;;;4814945;29;19943;-88
2022/06/26 05:37:33;;;;;;;;;;;;;;;;;;4830235;29;19936;-88
2022/06/26 05:39:59;;;;;;;;;;;;;;;;;;4824835;29;20403;-87
2022/06/26 05:42:41;;;;;;;;;;;;;;;;;;4834919;29;19934;-87
2022/06/26 05:45:07;;;;;;;;;;;;;;;;;;4854120;29;19928;-87
2022/06/26 05:47:33;;;;;;;;;;;;;;;;;;4841038;29;19940;-88
2022/06/26 05:50:00;;;;;;;;;;;;;;;;;;4838170;29;19935;-87
2022/06/26 05:52:27;;;;;;;;;;;;;;;;;;4840129;29;19932;-88
2022/06/26 05:54:55;;;;;;;;;;;;;;;;;;4833057;29;20624;-87
2022/06/26 05:57:20;;;;;;;;;;;;;;;;;;4828723;29;20043;-88
2022/06/26 05:59:47;;;;;;;;;;;;;;;;;;4831618;29;19984;-87
2022/06/26 06:02:15;;;;;;;;;;;;;;;;;;4830001;29;19940;-87
2022/06/26 06:04:42;;;;;;;;;;;;;;;;;;4826238;29;19928;-88
2022/06/26 06:07:09;;;;;;;;;;;;;;;;;;4829960;29;19932;-88
2022/06/26 06:09:35;;;;;;;;;;;;;;;;;;4833022;29;20014;-89
2022/06/26 06:12:11;;;;;;;;;;;;;;;;;;4831291;29;19981;-87
2022/06/26 06:14:38;;;;;;;;;;;;;;;;;;4828996;29;19931;-87
2022/06/26 06:19:53;;;;;;;;;;;;;;;;;;4830949;29;20404;-87
2022/06/26 06:22:32;;;;;;;;;;;;;;;;;;4827534;29;20401;-87
2022/06/26 06:24:59;;;;;;;;;;;;;;;;;;4811038;29;20434;-87
2022/06/26 06:27:29;;;;;;;;;;;;;;;;;;4818823;29;21251;-87
2022/06/26 06:29:56;;;;;;;;;;;;;;;;;;4811073;29;20540;-86
2022/06/26 06:32:23;;;;;;;;;;;;;;;;;;4846292;29;19939;-88
2022/06/26 06:34:52;;;;;;;;;;;;;;;;;;4814165;29;19947;-87
2022/06/26 06:37:20;;;;;;;;;;;;;;;;;;4832190;29;19932;-88
2022/06/26 06:39:48;;;;;;;;;;;;;;;;;;4827325;29;19932;-88
2022/06/26 06:42:15;;;;;;;;;;;;;;;;;;4830366;29;19928;-87
2022/06/26 06:44:56;;;;;;;;;;;;;;;;;;4826673;29;20084;-87
2022/06/26 06:47:22;;;;;;;;;;;;;;;;;;4829221;29;19968;-88
2022/06/26 06:49:48;;;;;;;;;;;;;;;;;;4826807;29;20069;-87
2022/06/26 06:52:34;;;;;;;;;;;;;;;;;;4845000;29;20067;-87
2022/06/26 06:55:04;;;;;;;;;;;;;;;;;;4829875;29;19935;-87
2022/06/26 06:57:31;;;;;;;;;;;;;;;;;;4829403;29;19928;-87
2022/06/26 06:59:57;;;;;;;;;;;;;;;;;;4823828;29;19932;-87
2022/06/26 07:02:23;;;;;;;;;;;;;;;;;;4830054;29;19936;-88
2022/06/26 07:04:50;;;;;;;;;;;;;;;;;;4826962;29;19932;-88
2022/06/26 07:07:17;;;;;;;;;;;;;;;;;;4814911;29;19929;-88
2022/06/26 07:09:46;;;;;;;;;;;;;;;;;;4816813;29;20288;-88
2022/06/26 07:12:12;;;;;;;;;;;;;;;;;;4831856;29;20292;-88
2022/06/26 07:14:39;;;;;;;;;;;;;;;;;;4826245;29;19924;-87
2022/06/26 07:17:05;;;;;;;;;;;;;;;;;;4816278;29;19936;-88
2022/06/26 07:19:31;;;;;;;;;;;;;;;;;;4830435;29;19924;-87
2022/06/26 07:22:02;;;;;;;;;;;;;;;;;;4832621;29;19924;-87
2022/06/26 07:24:27;;;;;;;;;;;;;;;;;;4825406;29;19936;-87
2022/06/26 07:26:53;;;;;;;;;;;;;;;;;;4814756;29;19928;-87
2022/06/26 07:29:19;;;;;;;;;;;;;;;;;;4829061;29;19932;-88
2022/06/26 07:31:46;;;;;;;;;;;;;;;;;;4830944;29;19939;-87
2022/06/26 07:34:16;;;;;;;;;;;;;;;;;;4831783;29;19938;-88
2022/06/26 07:36:43;;;;;;;;;;;;;;;;;;4830770;29;20027;-87
2022/06/26 07:39:10;;;;;;;;;;;;;;;;;;4819972;29;19928;-87
2022/06/26 07:41:51;;;;;;;;;;;;;;;;;;4831179;29;19935;-88
2022/06/26 07:44:17;;;;;;;;;;;;;;;;;;4818793;29;19937;-88
2022/06/26 07:46:47;;;;;;;;;;;;;;;;;;4830863;29;20067;-88
2022/06/26 07:49:13;;;;;;;;;;;;;;;;;;4802741;29;20471;-87
2022/06/26 07:51:49;;;;;;;;;;;;;;;;;;4804283;29;19932;-87
2022/06/26 07:54:16;;;;;;;;;;;;;;;;;;4817034;29;19976;-88
2022/06/26 07:56:42;;;;;;;;;;;;;;;;;;4813959;29;19939;-88
2022/06/26 07:59:10;;;;;;;;;;;;;;;;;;4807082;29;19936;-87
2022/06/26 08:01:37;;;;;;;;;;;;;;;;;;4818412;29;20023;-87
2022/06/26 08:04:03;;;;;;;;;;;;;;;;;;4821991;29;19936;-88
2022/06/26 08:06:30;;;;;;;;;;;;;;;;;;4816171;29;19970;-87
2022/06/26 08:08:57;;;;;;;;;;;;;;;;;;4800360;29;19932;-87
2022/06/26 08:11:25;;;;;;;;;;;;;;;;;;4815374;29;19925;-87
2022/06/26 08:13:52;;;;;;;;;;;;;;;;;;4826579;29;19931;-87
2022/06/26 08:16:19;;;;;;;;;;;;;;;;;;4816081;29;20468;-87
2022/06/26 08:18:46;;;;;;;;;;;;;;;;;;4831106;29;19932;-88
2022/06/26 08:24:02;;;;;;;;;;;;;;;;;;4835916;29;19932;-88
2022/06/26 08:26:28;;;;;;;;;;;;;;;;;;4837063;29;19932;-87
2022/06/26 08:28:55;;;;;;;;;;;;;;;;;;4816566;29;19923;-87
2022/06/26 08:31:20;;;;;;;;;;;;;;;;;;4831650;29;19932;-87
2022/06/26 08:33:46;;;;;;;;;;;;;;;;;;4830443;29;19928;-88
2022/06/26 08:36:15;;;;;;;;;;;;;;;;;;4833652;29;19932;-88
2022/06/26 08:38:41;;;;;;;;;;;;;;;;;;4829841;29;20000;-88
2022/06/26 08:41:07;;;;;;;;;;;;;;;;;;4830685;29;19938;-87
2022/06/26 08:43:33;;;;;;;;;;;;;;;;;;4815254;29;19972;-88
2022/06/26 08:46:01;;;;;;;;;;;;;;;;;;4827188;29;20022;-87
2022/06/26 08:48:27;;;;;;;;;;;;;;;;;;4832974;29;19984;-88
2022/06/26 08:51:05;;;;;;;;;;;;;;;;;;4817849;29;19939;-88
2022/06/26 08:53:31;;;;;;;;;;;;;;;;;;4825317;29;19928;-88
2022/06/26 08:55:59;;;;;;;;;;;;;;;;;;4824136;29;19928;-88
2022/06/26 08:58:26;;;;;;;;;;;;;;;;;;4840605;29;19939;-88
2022/06/26 09:00:53;;;;;;;;;;;;;;;;;;4841203;29;19936;-88
2022/06/26 09:03:27;;;;;;;;;;;;;;;;;;4847897;29;19985;-88
2022/06/26 09:05:53;;;;;;;;;;;;;;;;;;4834381;29;19925;-88
2022/06/26 09:08:20;;;;;;;;;;;;;;;;;;4840476;29;19936;-88
2022/06/26 09:10:48;;;;;;;;;;;;;;;;;;4827884;29;20418;-88
2022/06/26 09:13:15;;;;;;;;;;;;;;;;;;4823883;29;20022;-88
2022/06/26 09:15:41;;;;;;;;;;;;;;;;;;4829413;29;19928;-88
2022/06/26 09:18:07;;;;;;;;;;;;;;;;;;4815447;29;20388;-88
2022/06/26 09:20:33;;;;;;;;;;;;;;;;;;4823357;29;19924;-88
2022/06/26 09:22:59;;;;;;;;;;;;;;;;;;4823778;29;20019;-88
2022/06/26 09:25:25;;;;;;;;;;;;;;;;;;4827624;29;19928;-88
2022/06/26 09:27:51;;;;;;;;;;;;;;;;;;4814755;29;20084;-88
2022/06/26 09:30:17;;;;;;;;;;;;;;;;;;4829626;29;19932;-88
2022/06/26 09:32:44;;;;;;;;;;;;;;;;;;4808990;29;19937;-88
2022/06/26 09:35:10;;;;;;;;;;;;;;;;;;4830266;29;22036;-88
2022/06/26 09:37:38;;;;;;;;;;;;;;;;;;4823047;29;19943;-88
2022/06/26 09:40:04;;;;;;;;;;;;;;;;;;4837529;29;19932;-88
2022/06/26 09:42:30;;;;;;;;;;;;;;;;;;4825143;29;20884;-88
2022/06/26 09:44:59;;;;;;;;;;;;;;;;;;4830622;29;19936;-88
2022/06/26 09:47:25;;;;;;;;;;;;;;;;;;4817521;29;19947;-88
2022/06/26 09:49:52;;;;;;;;;;;;;;;;;;4820340;29;19940;-88
2022/06/26 09:52:18;;;;;;;;;;;;;;;;;;4827688;29;19935;-88
2022/06/26 09:54:44;;;;;;;;;;;;;;;;;;4835488;29;19969;-88
2022/06/26 09:57:11;;;;;;;;;;;;;;;;;;4819841;29;19928;-88
2022/06/26 09:59:38;;;;;;;;;;;;;;;;;;4807023;29;19943;-88
2022/06/26 10:07:40;;;;;;;;;;;;;;;;;;4819912;29;19935;-87
2022/06/26 10:10:07;;;;;;;;;;;;;;;;;;4825344;29;19932;-88
2022/06/26 10:12:34;;;;;;;;;;;;;;;;;;4844745;29;19939;-88
2022/06/26 10:15:13;;;;;;;;;;;;;;;;;;4817153;29;20835;-88
2022/06/26 10:17:39;;;;;;;;;;;;;;;;;;4819711;29;19939;-88
2022/06/26 10:20:08;;;;;;;;;;;;;;;;;;4823373;29;19965;-86
2022/06/26 10:22:34;;;;;;;;;;;;;;;;;;4809163;29;19966;-84
2022/06/26 10:25:15;;;;;;;;;;;;;;;;;;4828238;29;19943;-84
2022/06/26 10:27:42;;;;;;;;;;;;;;;;;;4813141;29;19936;-85
2022/06/26 10:30:09;;;;;;;;;;;;;;;;;;4827316;29;20048;-84
2022/06/26 10:32:35;;;;;;;;;;;;;;;;;;4827304;29;19928;-84
2022/06/26 10:35:04;;;;;;;;;;;;;;;;;;4815686;29;19928;-85
2022/06/26 10:37:31;;;;;;;;;;;;;;;;;;4816263;29;19968;-84
2022/06/26 10:40:00;;;;;;;;;;;;;;;;;;4821856;29;20001;-85
2022/06/26 10:45:14;;;;;;;;;;;;;;;;;;4817151;29;19932;-85
2022/06/26 10:47:44;;;;;;;;;;;;;;;;;;4813928;29;19992;-84
2022/06/26 10:50:11;;;;;;;;;;;;;;;;;;4824113;29;20814;-84
2022/06/26 10:52:38;;;;;;;;;;;;;;;;;;4819601;29;19982;-84
2022/06/26 10:55:04;;;;;;;;;;;;;;;;;;4816321;29;19928;-84
2022/06/26 10:57:31;;;;;;;;;;;;;;;;;;4829316;29;19932;-84
2022/06/26 11:00:00;;;;;;;;;;;;;;;;;;4817128;29;19931;-85
2022/06/26 11:02:26;;;;;;;;;;;;;;;;;;4822967;29;19939;-83
2022/06/26 11:04:52;;;;;;;;;;;;;;;;;;4819023;29;19932;-83
2022/06/26 11:07:19;;;;;;;;;;;;;;;;;;4850852;29;20003;-83
2022/06/26 11:09:47;;;;;;;;;;;;;;;;;;4831809;29;19944;-83
2022/06/26 11:12:14;;;;;;;;;;;;;;;;;;4836979;29;19928;-84
2022/06/26 11:14:41;;;;;;;;;;;;;;;;;;4836679;29;19933;-85
2022/06/26 11:17:09;;;;;;;;;;;;;;;;;;4823746;29;19928;-83
2022/06/26 11:20:46;;;;;;;;;;;;;;;;;;4833722;29;19932;-83
2022/06/26 11:22:41;;;;;;;;;;;;;;;;;;4827786;29;19931;-83
2022/06/26 11:25:08;;;;;;;;;;;;;;;;;;4834850;29;19939;-83
2022/06/26 11:27:34;;;;;;;;;;;;;;;;;;4834180;29;21015;-83
2022/06/26 11:30:00;;;;;;;;;;;;;;;;;;4833084;29;19938;-83
2022/06/26 11:32:26;;;;;;;;;;;;;;;;;;4845352;29;19928;-83
2022/06/26 11:34:52;;;;;;;;;;;;;;;;;;4830089;29;19941;-83
2022/06/26 11:37:19;;;;;;;;;;;;;;;;;;4833909;29;19983;-83
2022/06/26 11:39:46;;;;;;;;;;;;;;;;;;4828663;29;20585;-83
2022/06/26 11:42:13;;;;;;;;;;;;;;;;;;4830146;29;19943;-84
2022/06/26 11:44:41;;;;;;;;;;;;;;;;;;4828482;29;19940;-83
2022/06/26 11:47:08;;;;;;;;;;;;;;;;;;4834684;29;19958;-84
2022/06/26 11:49:34;;;;;;;;;;;;;;;;;;4837706;29;20407;-84
2022/06/26 11:52:01;;;;;;;;;;;;;;;;;;4828720;29;19924;-84
2022/06/26 11:54:28;;;;;;;;;;;;;;;;;;4829101;29;19928;-84
2022/06/26 11:56:55;;;;;;;;;;;;;;;;;;4824732;29;20743;-83
2022/06/26 11:59:38;;;;;;;;;;;;;;;;;;4829523;29;19932;-84
2022/06/26 12:02:04;;;;;;;;;;;;;;;;;;4832356;29;19924;-83
2022/06/26 12:04:30;;;;;;;;;;;;;;;;;;4815860;29;19936;-83
2022/06/26 12:06:57;;;;;;;;;;;;;;;;;;4819407;29;20639;-84
2022/06/26 12:09:24;;;;;;;;;;;;;;;;;;4836178;29;20475;-84
2022/06/26 12:11:50;;;;;;;;;;;;;;;;;;4807263;29;19931;-84
2022/06/26 12:14:16;;;;;;;;;;;;;;;;;;4825960;29;19927;-84
2022/06/26 12:16:42;;;;;;;;;;;;;;;;;;4839507;29;19932;-84
2022/06/26 12:19:18;;;;;;;;;;;;;;;;;;4840403;29;20359;-84
2022/06/26 12:21:45;;;;;;;;;;;;;;;;;;4834643;29;20051;-84
2022/06/26 12:24:11;;;;;;;;;;;;;;;;;;4821315;29;20851;-84
2022/06/26 12:26:44;;;;;;;;;;;;;;;;;;4825452;29;19938;-84
2022/06/26 12:29:11;;;;;;;;;;;;;;;;;;4845780;29;19985;-84
2022/06/26 12:31:37;;;;;;;;;;;;;;;;;;4847238;29;19935;-84
2022/06/26 12:34:04;;;;;;;;;;;;;;;;;;4844987;29;19928;-84
2022/06/26 12:36:32;;;;;;;;;;;;;;;;;;4847512;29;20344;-84
2022/06/26 12:38:59;;;;;;;;;;;;;;;;;;4832495;29;21008;-82
2022/06/26 12:41:26;;;;;;;;;;;;;;;;;;4835848;29;19934;-84
2022/06/26 12:43:52;;;;;;;;;;;;;;;;;;4817196;29;20356;-84
2022/06/26 12:46:33;;;;;;;;;;;;;;;;;;4834669;29;19931;-84
2022/06/26 12:49:01;;;;;;;;;;;;;;;;;;4824162;29;19931;-83
2022/06/26 12:51:28;;;;;;;;;;;;;;;;;;4832296;29;20269;-84
2022/06/26 12:53:56;;;;;;;;;;;;;;;;;;4821842;29;22910;-84
2022/06/26 12:56:22;;;;;;;;;;;;;;;;;;4829464;29;19928;-83
2022/06/26 12:58:48;;;;;;;;;;;;;;;;;;4807875;29;19973;-84
2022/06/26 13:01:14;;;;;;;;;;;;;;;;;;4822806;29;19932;-83
2022/06/26 13:03:41;;;;;;;;;;;;;;;;;;4819278;29;20041;-83
2022/06/26 13:06:08;;;;;;;;;;;;;;;;;;4829866;29;20062;-84
2022/06/26 13:08:35;;;;;;;;;;;;;;;;;;4833820;29;19924;-84
2022/06/26 13:13:50;;;;;;;;;;;;;;;;;;4830240;29;19942;-84
2022/06/26 13:16:17;;;;;;;;;;;;;;;;;;4839705;29;20437;-84
2022/06/26 13:18:44;;;;;;;;;;;;;;;;;;4832737;29;19932;-84
2022/06/26 13:21:11;;;;;;;;;;;;;;;;;;4830099;29;19931;-84
2022/06/26 13:23:37;;;;;;;;;;;;;;;;;;4831544;29;19974;-84
2022/06/26 13:26:05;;;;;;;;;;;;;;;;;;4835819;29;20011;-84
2022/06/26 13:28:30;;;;;;;;;;;;;;;;;;4838602;29;19928;-84
2022/06/26 13:30:56;;;;;;;;;;;;;;;;;;4834406;29;20429;-84
2022/06/26 13:33:23;;;;;;;;;;;;;;;;;;4835132;29;20308;-83
2022/06/26 13:35:49;;;;;;;;;;;;;;;;;;4840713;29;20023;-83
2022/06/26 13:38:16;;;;;;;;;;;;;;;;;;4843334;29;20348;-83
2022/06/26 13:40:43;;;;;;;;;;;;;;;;;;4840098;29;19924;-84
2022/06/26 13:43:10;;;;;;;;;;;;;;;;;;4840382;29;19932;-84
2022/06/26 13:45:38;;;;;;;;;;;;;;;;;;4836226;29;19988;-84
2022/06/26 13:48:05;;;;;;;;;;;;;;;;;;4836244;29;19924;-89
2022/06/26 13:50:42;;;;;;;;;;;;;;;;;;4828794;29;19932;-83
2022/06/26 13:53:09;;;;;;;;;;;;;;;;;;4813944;29;19940;-84
2022/06/26 13:55:36;;;;;;;;;;;;;;;;;;4822455;29;19928;-85
2022/06/26 13:58:02;;;;;;;;;;;;;;;;;;4824269;29;20402;-84
2022/06/26 14:00:31;;;;;;;;;;;;;;;;;;4834229;29;19950;-84
2022/06/26 14:03:00;;;;;;;;;;;;;;;;;;4831559;29;19984;-84
2022/06/26 14:05:26;;;;;;;;;;;;;;;;;;4833094;29;19938;-84
2022/06/26 14:07:52;;;;;;;;;;;;;;;;;;4835904;29;20259;-84
2022/06/26 14:10:19;;;;;;;;;;;;;;;;;;4839014;29;19993;-83
2022/06/26 14:12:46;;;;;;;;;;;;;;;;;;4829538;29;20285;-83
2022/06/26 14:15:12;;;;;;;;;;;;;;;;;;4820461;29;19950;-84
2022/06/26 14:17:40;;;;;;;;;;;;;;;;;;4833414;29;19925;-84
2022/06/26 14:20:08;;;;;;;;;;;;;;;;;;4837377;29;20343;-83
2022/06/26 14:28:04;;;;;;;;;;;;;;;;;;4834118;29;19997;-83
2022/06/26 14:30:32;;;;;;;;;;;;;;;;;;4822579;29;20050;-83
2022/06/26 14:32:59;;;;;;;;;;;;;;;;;;4811336;29;19938;-83
2022/06/26 14:35:26;;;;;;;;;;;;;;;;;;4831485;29;19954;-84
2022/06/26 14:37:52;;;;;;;;;;;;;;;;;;4833062;29;19939;-84
2022/06/26 14:40:19;;;;;;;;;;;;;;;;;;4836743;29;19924;-83
2022/06/26 14:42:50;;;;;;;;;;;;;;;;;;4842201;29;19930;-83
2022/06/26 14:45:17;;;;;;;;;;;;;;;;;;4839222;29;19939;-84
2022/06/26 14:47:45;;;;;;;;;;;;;;;;;;4838319;29;20000;-84
2022/06/26 14:50:12;;;;;;;;;;;;;;;;;;4838330;29;19932;-84
2022/06/26 14:52:38;;;;;;;;;;;;;;;;;;4839570;29;19936;-84
2022/06/26 14:55:05;;;;;;;;;;;;;;;;;;4844335;29;19932;-84
2022/06/26 14:57:33;;;;;;;;;;;;;;;;;;4829621;29;19935;-85
2022/06/26 15:00:00;;;;;;;;;;;;;;;;;;4815407;29;20067;-84
2022/06/26 15:02:27;;;;;;;;;;;;;;;;;;4812154;29;19976;-84
2022/06/26 15:04:54;;;;;;;;;;;;;;;;;;4807005;29;19939;-84
2022/06/26 15:07:21;;;;;;;;;;;;;;;;;;4823010;29;19932;-85
2022/06/26 15:09:51;;;;;;;;;;;;;;;;;;4818268;29;20024;-85
2022/06/26 15:12:19;;;;;;;;;;;;;;;;;;4823569;29;19932;-84
2022/06/26 15:14:46;;;;;;;;;;;;;;;;;;4821610;29;20110;-84
2022/06/26 15:17:14;;;;;;;;;;;;;;;;;;4818120;29;20339;-84
2022/06/26 15:19:56;;;;;;;;;;;;;;;;;;4827437;29;20053;-84
2022/06/26 15:22:23;;;;;;;;;;;;;;;;;;4834425;29;20018;-83
2022/06/26 15:24:50;;;;;;;;;;;;;;;;;;4814853;29;19932;-83
2022/06/26 15:27:17;;;;;;;;;;;;;;;;;;4829266;29;20369;-83
2022/06/26 15:29:45;;;;;;;;;;;;;;;;;;4829435;29;19976;-83
2022/06/26 15:32:15;;;;;;;;;;;;;;;;;;4827377;29;19981;-83
2022/06/26 15:34:42;;;;;;;;;;;;;;;;;;4815242;29;19936;-84
2022/06/26 15:37:09;;;;;;;;;;;;;;;;;;4794824;29;20067;-83
2022/06/26 15:39:35;;;;;;;;;;;;;;;;;;4800694;29;19940;-83
2022/06/26 15:42:02;;;;;;;;;;;;;;;;;;4811396;29;20314;-84
2022/06/26 15:44:34;;;;;;;;;;;;;;;;;;4817394;29;19943;-83
2022/06/26 15:47:07;;;;;;;;;;;;;;;;;;4817194;29;21106;-83
2022/06/26 15:49:34;;;;;;;;;;;;;;;;;;4818359;29;19932;-83
2022/06/26 15:52:01;;;;;;;;;;;;;;;;;;4820995;29;19924;-83
2022/06/26 15:54:28;;;;;;;;;;;;;;;;;;4817560;29;19928;-83
2022/06/26 15:56:54;;;;;;;;;;;;;;;;;;4815224;29;20372;-83
2022/06/26 15:59:20;;;;;;;;;;;;;;;;;;4823759;29;20074;-84
2022/06/26 16:01:48;;;;;;;;;;;;;;;;;;4818332;29;19990;-84
2022/06/26 16:04:16;;;;;;;;;;;;;;;;;;4819605;29;20704;-83
2022/06/26 16:06:43;;;;;;;;;;;;;;;;;;4818138;29;20506;-84
2022/06/26 16:09:09;;;;;;;;;;;;;;;;;;4820242;29;19938;-83
2022/06/26 16:11:41;;;;;;;;;;;;;;;;;;4816644;29;19948;-84
2022/06/26 16:14:09;;;;;;;;;;;;;;;;;;4811812;29;19939;-84
2022/06/26 16:16:35;;;;;;;;;;;;;;;;;;4823149;29;20363;-83
2022/06/26 16:19:07;;;;;;;;;;;;;;;;;;4829451;29;20372;-84
2022/06/26 16:21:34;;;;;;;;;;;;;;;;;;4824771;29;19928;-84
2022/06/26 16:26:58;;;;;;;;;;;;;;;;;;4824912;29;19963;-84
2022/06/26 16:29:36;;;;;;;;;;;;;;;;;;4820908;29;19932;-84
2022/06/26 16:32:07;;;;;;;;;;;;;;;;;;4824076;29;20299;-84
2022/06/26 16:34:33;;;;;;;;;;;;;;;;;;4827640;29;19928;-84
2022/06/26 16:37:19;;;;;;;;;;;;;;;;;;4821301;29;20023;-84
2022/06/26 16:39:46;;;;;;;;;;;;;;;;;;4819643;29;19929;-84
2022/06/26 16:42:28;;;;;;;;;;;;;;;;;;4827627;29;19954;-84
2022/06/26 16:44:55;;;;;;;;;;;;;;;;;;4819929;29;20423;-84
2022/06/26 16:47:23;;;;;;;;;;;;;;;;;;4837061;29;19939;-84
2022/06/26 16:49:50;;;;;;;;;;;;;;;;;;4827568;29;20850;-84
2022/06/26 16:52:20;;;;;;;;;;;;;;;;;;4808011;29;19940;-84
2022/06/26 16:54:47;;;;;;;;;;;;;;;;;;4822236;29;19977;-84
2022/06/26 16:57:13;;;;;;;;;;;;;;;;;;4821961;29;19936;-85
2022/06/26 16:59:40;;;;;;;;;;;;;;;;;;4821897;29;19978;-83
2022/06/26 17:02:06;;;;;;;;;;;;;;;;;;4824821;29;20075;-85
2022/06/26 17:04:38;;;;;;;;;;;;;;;;;;4825975;29;19977;-85
2022/06/26 17:07:05;;;;;;;;;;;;;;;;;;4837040;29;19983;-85
2022/06/26 17:09:31;;;;;;;;;;;;;;;;;;4839233;29;20751;-84
2022/06/26 17:12:01;;;;;;;;;;;;;;;;;;4825194;29;19979;-84
2022/06/26 17:14:28;;;;;;;;;;;;;;;;;;4823121;29;19928;-84
2022/06/26 17:16:56;;;;;;;;;;;;;;;;;;4829790;29;20106;-85
2022/06/26 17:19:21;;;;;;;;;;;;;;;;;;4811980;29;19928;-85
2022/06/26 17:21:50;;;;;;;;;;;;;;;;;;4815740;29;19928;-85
2022/06/26 17:24:26;;;;;;;;;;;;;;;;;;4835858;29;19932;-84
2022/06/26 17:26:52;;;;;;;;;;;;;;;;;;4832752;29;19936;-85
2022/06/26 17:29:25;;;;;;;;;;;;;;;;;;4846086;29;20311;-85
2022/06/26 17:31:52;;;;;;;;;;;;;;;;;;4829791;29;19931;-84
2022/06/26 17:34:18;;;;;;;;;;;;;;;;;;4833098;29;19938;-84
2022/06/26 17:36:44;;;;;;;;;;;;;;;;;;4807652;29;20315;-84
2022/06/26 17:39:12;;;;;;;;;;;;;;;;;;4830966;29;20344;-82
2022/06/26 17:41:39;;;;;;;;;;;;;;;;;;4812813;29;19928;-85
2022/06/26 17:44:05;;;;;;;;;;;;;;;;;;4834834;29;20296;-84
2022/06/26 17:46:31;;;;;;;;;;;;;;;;;;4817843;29;19935;-84
2022/06/26 17:48:56;;;;;;;;;;;;;;;;;;4821803;29;19933;-84
2022/06/26 17:51:24;;;;;;;;;;;;;;;;;;4831256;29;19942;-84
2022/06/26 17:53:50;;;;;;;;;;;;;;;;;;4824419;29;19940;-84
2022/06/26 17:56:16;;;;;;;;;;;;;;;;;;4827794;29;19932;-84
2022/06/26 17:58:56;;;;;;;;;;;;;;;;;;4837291;29;19938;-84
2022/06/26 18:01:29;;;;;;;;;;;;;;;;;;4826187;29;19996;-84
2022/06/26 18:03:57;;;;;;;;;;;;;;;;;;4824766;29;20666;-84
2022/06/26 18:06:23;;;;;;;;;;;;;;;;;;4817675;29;19932;-83
2022/06/26 18:08:49;;;;;;;;;;;;;;;;;;4815009;29;19939;-84
2022/06/26 18:11:17;;;;;;;;;;;;;;;;;;4823997;29;19939;-84
2022/06/26 18:13:43;;;;;;;;;;;;;;;;;;4813884;29;19939;-84
2022/06/26 18:16:09;;;;;;;;;;;;;;;;;;4823843;29;19928;-84
2022/06/26 18:18:37;;;;;;;;;;;;;;;;;;4832633;29;19939;-84
2022/06/26 18:21:04;;;;;;;;;;;;;;;;;;4818632;29;20375;-84
2022/06/26 18:23:32;;;;;;;;;;;;;;;;;;4814314;29;19928;-84
2022/06/26 18:26:01;;;;;;;;;;;;;;;;;;4811603;29;19932;-85
2022/06/26 18:28:28;;;;;;;;;;;;;;;;;;4844724;29;19924;-84
2022/06/26 18:30:57;;;;;;;;;;;;;;;;;;4822282;29;23281;-84
2022/06/26 18:33:27;;;;;;;;;;;;;;;;;;4823849;29;19932;-84
2022/06/26 18:35:53;;;;;;;;;;;;;;;;;;4820932;29;19951;-84
2022/06/26 18:38:20;;;;;;;;;;;;;;;;;;4822231;29;19939;-84
2022/06/26 18:40:47;;;;;;;;;;;;;;;;;;4821581;29;19931;-84
2022/06/26 18:43:13;;;;;;;;;;;;;;;;;;4820596;29;19975;-84
2022/06/26 18:45:39;;;;;;;;;;;;;;;;;;4833231;29;20020;-84
2022/06/26 18:48:07;;;;;;;;;;;;;;;;;;4824870;29;19981;-84
2022/06/26 18:50:34;;;;;;;;;;;;;;;;;;4829559;29;20245;-84
2022/06/26 18:53:16;;;;;;;;;;;;;;;;;;4813756;29;19934;-84
2022/06/26 18:55:43;;;;;;;;;;;;;;;;;;4798006;29;19932;-84
2022/06/26 18:58:10;;;;;;;;;;;;;;;;;;4806840;29;19928;-84
2022/06/26 19:00:37;;;;;;;;;;;;;;;;;;4804575;29;19928;-84
2022/06/26 19:03:12;;;;;;;;;;;;;;;;;;4822729;29;19931;-84
2022/06/26 19:05:50;;;;;;;;;;;;;;;;;;4809694;29;19995;-84
2022/06/26 19:08:17;;;;;;;;;;;;;;;;;;4817547;29;20408;-84
2022/06/26 19:10:44;;;;;;;;;;;;;;;;;;4809479;29;20007;-83
2022/06/26 19:15:58;;;;;;;;;;;;;;;;;;4822488;29;20219;-84
2022/06/26 19:18:40;;;;;;;;;;;;;;;;;;4801609;29;19933;-84
2022/06/26 19:21:08;;;;;;;;;;;;;;;;;;4795823;29;19962;-84
2022/06/26 19:23:34;;;;;;;;;;;;;;;;;;4782989;29;20044;-83
2022/06/26 19:26:01;;;;;;;;;;;;;;;;;;4812523;29;20399;-83
2022/06/26 19:28:27;;;;;;;;;;;;;;;;;;4817984;29;21068;-84
2022/06/26 19:30:56;;;;;;;;;;;;;;;;;;4827047;29;20824;-83
2022/06/26 19:33:28;;;;;;;;;;;;;;;;;;4830813;29;19964;-84
2022/06/26 19:35:55;;;;;;;;;;;;;;;;;;4807340;29;21794;-84
2022/06/26 19:38:21;;;;;;;;;;;;;;;;;;4828715;29;19976;-84
2022/06/26 19:40:49;;;;;;;;;;;;;;;;;;4813588;29;19932;-84
2022/06/26 19:43:15;;;;;;;;;;;;;;;;;;4830222;29;19935;-84
2022/06/26 19:45:42;;;;;;;;;;;;;;;;;;4826138;29;19932;-84
2022/06/26 19:48:08;;;;;;;;;;;;;;;;;;4812122;29;20574;-83
2022/06/26 19:50:34;;;;;;;;;;;;;;;;;;4831264;29;20443;-84
2022/06/26 19:53:01;;;;;;;;;;;;;;;;;;4825577;29;20057;-83
2022/06/26 19:55:29;;;;;;;;;;;;;;;;;;4829673;29;19928;-87